KWRB/WRB METAR and TAF weather

Enter ICAO airport designator
Station Type Date Time Source
KWRB METAR 2019/08/25 01:56 UTC NOAA

KWRB 250156Z 00000KT 10SM SCT160 24/24 A3002 RMK AO2A SLP166 T02380238


Station Type Date Time Source
KWRB Decoded METAR 2019/08/25 01:56 UTC NOAA

Station name not available
Aug 24, 2019 - 09:56 PM EDT / 2019.08.25 0156 UTC
Wind: Calm:0
Visibility: 10 mile(s):0
Sky conditions: partly cloudy
Temperature: 74.8 F (23.8 C)
Dew Point: 74.8 F (23.8 C)
Relative Humidity: 100%
Pressure (altimeter): 30.02 in. Hg (1016 hPa)
ob: KWRB 250156Z 00000KT 10SM SCT160 24/24 A3002 RMK AO2A SLP166 T02380238
cycle: 2

Station Type Date Time Source
KWRB TAF 2019/08/24 21:03 UTC NOAA

TAF TAF KWRB 242100Z 2421/2603 VRB06KT 9999 VCSH SCT040 BKN200 QNH2993INS
TEMPO 2421/2500 VRB35G50KT 6000 -TSRA BKN030CB
BECMG 2501/2502 06006KT 9999 NSW SCT050 QNH3002INS
BECMG 2508/2509 VRB06KT 8000 BR BKN010 QNH3001INS
BECMG 2514/2515 VRB06KT 9999 NSW SCT050 QNH3000INS TX33/2421Z TN22/2511Z

Example: see airport list